Historyczne dane pomiarowe

Dodano dane terminowe – wersja testowa.

Dane z okresu 1951-2019

Wersja bazy: 1.34 [2019-03-16, lista zmian], aktualizacja planowana na 2019-04-15

Dane meteo z obszaru Polski uzyskane na podstawie danych udostępnionych przez Instytut Meteorologii i Gospodarki Wodnej – Państwowy Instytut Badawczy.

 

Wybierz Datę:    

       

TemperaturaWilgotnośćWiatrCiśnienieOpadyŚniegCzas trwania zjawisk
 Stacja t tx tn tng RH VA  wxwx mslp ppp RRR   cm mm wxwxwxwxwxwxwx
1994-08-14 13.4 16.9 10.5 8.2 75.3- 5.7 4.0---- 1.3------------
1994-08-13 15.4 16.8 13.4 13.8 93.0- 5.0 4.3---- 7.8------------
1994-08-12 18.2 23.5 15.5 13.8 86.0- 5.0 1.7---- 2.7------------
1994-08-11 18.5 25.4 16.4 15.4 81.0- 7.0 3.3---- 16.5------------
1994-08-10 22.3 29.4 13.5 10.6 67.8- 3.0 0.7---- 0.0------------
1994-08-09 22.4 28.2 18.7 17.1 71.3- 4.7 1.7---- 0.0------------
1994-08-08 20.4 27.9 17.2 15.0 79.8- 5.7 1.7---- 0.0------------
1994-08-07 23.8 29.8 17.8 13.8 67.0- 6.7 3.3---- 22.5------------
1994-08-06 24.4 32.0 17.1 12.1 67.8- 2.3 2.7---- 0.0------------
1994-08-05 24.8 33.8 12.1 9.6 57.8- 1.3 1.7---- 0.0------------
1994-08-04 22.9 31.9 13.4 9.8 56.8- 1.3 2.3---- 0.0------------
1994-08-03 24.9 30.8 18.7 14.6 58.0- 1.7 2.7---- 0.0------------
1994-08-02 26.5 32.8 20.7 15.3 61.8- 3.7 3.7---- 0.0------------
1994-08-01 27.8 38.2 17.7 14.3 52.8- 3.3 1.7---- 0.0------------
1994-07-31 28.4 37.4 17.1 12.8 51.0- 2.0 2.0---- 0.0------------
1994-07-30 27.4 37.1 16.1 12.8 50.0- 3.3 2.3---- 0.0------------
1994-07-29 27.3 36.8 15.6 11.8 50.8- 3.0 2.0---- 0.0------------
1994-07-28 26.6 36.2 16.6 12.8 58.8- 1.0 0.7---- 0.0------------
1994-07-27 26.2 33.8 21.4 16.8 64.0- 3.0 1.7---- 0.0------------
1994-07-26 25.8 37.1 16.4 12.1 53.5- 3.3 1.0---- 0.0------------
1994-07-25 24.8 34.4 11.9 9.3 54.8- 1.0 1.7---- 0.0------------
1994-07-24 23.9 35.0 11.8 9.0 55.0- 0.3 1.7---- 0.0------------
1994-07-23 23.3 31.8 11.0 6.9 53.0- 1.0 1.3---- 0.0------------
1994-07-22 22.1 31.4 9.2 5.4 53.3- 1.0 0.0---- 0.0------------
1994-07-21 20.5 29.9 8.9 5.1 56.5- 0.0 1.0---- 0.0------------
1994-07-20 19.2 26.1 10.8 4.8 56.3- 1.3 1.3---- 0.0------------
1994-07-19 20.4 25.4 15.1 12.3 55.8- 2.3 5.0---- 0.0------------
1994-07-18 19.9 24.2 13.5 10.8 72.8- 4.7 3.7---- 0.0------------
1994-07-17 22.6 32.0 16.1 13.3 75.8- 2.7 0.7---- 0.0------------
1994-07-16 22.5 28.5 17.2 13.4 73.5- 3.3 1.7---- 0.0------------
1994-07-15 24.1 32.0 16.7 12.4 65.5- 0.0 2.7---- 0.0------------
1994-07-14 24.2 32.3 14.2 10.8 60.3- 1.7 2.0---- 0.0------------
1994-07-13 23.5 30.5 13.5 10.4 61.0- 2.3 2.3---- 0.0------------
1994-07-12 22.7 27.9 13.6 10.3 69.5- 1.0 4.0---- 0.0------------
1994-07-11 21.8 27.9 13.9 9.8 65.8- 0.7 2.3---- 0.0------------
1994-07-10 18.8 25.5 12.8 10.4 80.5- 2.7 3.0---- 0.0------------
1994-07-09 16.6 21.7 14.5 12.0 86.8- 6.0 3.3---- 3.1------------
1994-07-08 14.2 16.5 12.4 13.3 91.3- 6.3 3.7---- 4.6------------
1994-07-07 18.1 26.1 12.5 8.9 76.8- 4.0 0.3---- 4.9------------
1994-07-06 21.0 30.3 12.0 8.3 69.3- 1.7 2.7---- 0.0------------
1994-07-05 18.5 25.2 15.6 11.3 77.0- 4.7 1.7---- 0.0------------
1994-07-04 22.5 30.4 12.4 9.8 54.3- 1.3 3.7---- 0.0------------
1994-07-03 21.1 28.9 10.2 6.1 56.3- 0.3 3.0---- 0.0------------
1994-07-02 18.1 25.9 9.8 6.5 67.0- 0.7 3.3---- 0.0------------
1994-07-01 18.3 24.7 10.8 5.1 72.0- 1.3 1.0---- 0.0------------
1994-06-30 20.5 23.5 18.6 17.4 75.0- 2.7 1.7---- 0.0------------
1994-06-29 24.6 34.5 18.6 12.2 69.8- 2.0 2.7---- 46.1------------
1994-06-28 25.3 31.3 17.1 13.3 65.8- 0.3 0.7---- 0.0------------
1994-06-27 24.1 31.9 16.1 12.0 69.3- 1.3 0.7---- 0.0------------
1994-06-26 22.7 32.2 10.9 6.5 59.8- 1.0 0.7---- 0.0------------
1994-06-25 17.0 28.3 5.5 0.5 57.3- 0.7 2.7---- 0.0------------
1994-06-24 15.0 21.9 6.2 0.0 60.8- 0.0 3.3---- 0.0------------
1994-06-23 17.0 22.3 10.4 5.9 58.3- 1.0 6.0---- 0.0------------
1994-06-22 20.4 25.1 16.1 12.4 69.8- 4.7 4.7---- 0.0------------
1994-06-21 17.3 24.9 7.1 4.1 73.0- 1.3 0.0---- 0.0------------
1994-06-20 17.5 21.9 14.7 10.3 68.0- 3.7 2.7---- 0.0------------
1994-06-19 17.3 23.4 12.5 12.3 76.3- 4.3 1.7---- 0.0------------
1994-06-18 12.9 20.1 4.9 0.0 78.0- 5.3 1.7---- 9.0------------
1994-06-17 11.6 14.9 7.4 3.9 64.8- 4.0 2.0---- 0.0------------
1994-06-16 11.7 14.9 10.1 5.9 76.5- 6.0 3.0---- 2.8------------
447.0 ms

 

Źródłem pochodzenia danych jest Instytut Meteorologii i Gospodarki Wodnej – Państwowy Instytut Badawczy. Dane Instytutu Meteorologii i Gospodarki Wodnej – Państwowego Instytutu Badawczego zostały przetworzone.

Dane źródłowe można odnaleźć na stronie https://dane.imgw.pl